sensor_id;sensor_type;location;lat;lon;timestamp;P1;durP1;ratioP1;P2;durP2;ratioP2
10041;SDS011;5061;49.068;12.058;2024-01-10T00:01:15;19.77;;;8.40;;
10041;SDS011;5061;49.068;12.058;2024-01-10T00:04:36;12.50;;;6.00;;
10041;SDS011;5061;49.068;12.058;2024-01-10T00:07:56;15.63;;;6.87;;
10041;SDS011;5061;49.068;12.058;2024-01-10T00:11:17;19.10;;;7.37;;
10041;SDS011;5061;49.068;12.058;2024-01-10T00:14:37;16.50;;;7.07;;
10041;SDS011;5061;49.068;12.058;2024-01-10T00:17:58;16.10;;;6.73;;
10041;SDS011;5061;49.068;12.058;2024-01-10T00:21:19;15.70;;;7.07;;
10041;SDS011;5061;49.068;12.058;2024-01-10T00:24:39;13.17;;;6.40;;
10041;SDS011;5061;49.068;12.058;2024-01-10T00:28:00;18.00;;;7.47;;
10041;SDS011;5061;49.068;12.058;2024-01-10T00:31:20;20.13;;;8.30;;
10041;SDS011;5061;49.068;12.058;2024-01-10T00:34:41;19.10;;;7.20;;
10041;SDS011;5061;49.068;12.058;2024-01-10T00:38:02;19.30;;;8.33;;
10041;SDS011;5061;49.068;12.058;2024-01-10T00:41:23;15.43;;;7.60;;
10041;SDS011;5061;49.068;12.058;2024-01-10T00:44:43;21.97;;;8.27;;
10041;SDS011;5061;49.068;12.058;2024-01-10T00:48:04;15.80;;;7.73;;
10041;SDS011;5061;49.068;12.058;2024-01-10T00:51:25;15.40;;;7.13;;
10041;SDS011;5061;49.068;12.058;2024-01-10T00:54:45;14.80;;;7.40;;
10041;SDS011;5061;49.068;12.058;2024-01-10T00:58:06;18.53;;;7.70;;
10041;SDS011;5061;49.068;12.058;2024-01-10T01:01:26;14.87;;;6.87;;
10041;SDS011;5061;49.068;12.058;2024-01-10T01:04:47;16.40;;;7.30;;
10041;SDS011;5061;49.068;12.058;2024-01-10T01:08:08;16.87;;;7.10;;
10041;SDS011;5061;49.068;12.058;2024-01-10T01:11:29;17.67;;;7.30;;
10041;SDS011;5061;49.068;12.058;2024-01-10T01:14:49;17.80;;;7.30;;
10041;SDS011;5061;49.068;12.058;2024-01-10T01:18:10;16.83;;;6.93;;
10041;SDS011;5061;49.068;12.058;2024-01-10T01:21:32;19.17;;;7.80;;
10041;SDS011;5061;49.068;12.058;2024-01-10T01:24:53;17.20;;;7.33;;
10041;SDS011;5061;49.068;12.058;2024-01-10T01:28:14;15.97;;;7.67;;
10041;SDS011;5061;49.068;12.058;2024-01-10T01:31:34;17.93;;;7.30;;
10041;SDS011;5061;49.068;12.058;2024-01-10T01:34:55;18.27;;;7.93;;
10041;SDS011;5061;49.068;12.058;2024-01-10T01:38:15;15.47;;;7.17;;
10041;SDS011;5061;49.068;12.058;2024-01-10T01:41:36;13.20;;;6.63;;
10041;SDS011;5061;49.068;12.058;2024-01-10T01:44:56;16.10;;;6.30;;
10041;SDS011;5061;49.068;12.058;2024-01-10T01:48:17;14.70;;;6.40;;
10041;SDS011;5061;49.068;12.058;2024-01-10T01:51:39;12.00;;;6.67;;
10041;SDS011;5061;49.068;12.058;2024-01-10T01:55:00;11.73;;;6.20;;
10041;SDS011;5061;49.068;12.058;2024-01-10T01:58:22;17.53;;;7.77;;
10041;SDS011;5061;49.068;12.058;2024-01-10T02:01:43;15.50;;;6.33;;
10041;SDS011;5061;49.068;12.058;2024-01-10T02:05:03;15.00;;;6.53;;
10041;SDS011;5061;49.068;12.058;2024-01-10T02:08:24;11.00;;;6.47;;
10041;SDS011;5061;49.068;12.058;2024-01-10T02:11:45;13.30;;;6.90;;
10041;SDS011;5061;49.068;12.058;2024-01-10T02:15:05;15.23;;;7.57;;
10041;SDS011;5061;49.068;12.058;2024-01-10T02:18:27;14.77;;;6.90;;
10041;SDS011;5061;49.068;12.058;2024-01-10T02:21:47;14.23;;;6.60;;
10041;SDS011;5061;49.068;12.058;2024-01-10T02:25:08;19.97;;;6.50;;
10041;SDS011;5061;49.068;12.058;2024-01-10T02:28:29;15.83;;;6.60;;
10041;SDS011;5061;49.068;12.058;2024-01-10T02:31:50;13.30;;;6.50;;
10041;SDS011;5061;49.068;12.058;2024-01-10T02:35:11;16.73;;;6.43;;
10041;SDS011;5061;49.068;12.058;2024-01-10T02:38:31;12.50;;;6.10;;
10041;SDS011;5061;49.068;12.058;2024-01-10T02:41:52;20.90;;;8.30;;
10041;SDS011;5061;49.068;12.058;2024-01-10T02:45:12;19.83;;;7.53;;
10041;SDS011;5061;49.068;12.058;2024-01-10T02:48:33;19.37;;;7.80;;
10041;SDS011;5061;49.068;12.058;2024-01-10T02:51:53;18.13;;;7.77;;
10041;SDS011;5061;49.068;12.058;2024-01-10T02:55:14;20.67;;;8.00;;
10041;SDS011;5061;49.068;12.058;2024-01-10T02:58:35;14.63;;;7.03;;
10041;SDS011;5061;49.068;12.058;2024-01-10T03:01:55;15.63;;;7.97;;
10041;SDS011;5061;49.068;12.058;2024-01-10T03:05:16;20.23;;;8.07;;
10041;SDS011;5061;49.068;12.058;2024-01-10T03:08:36;15.47;;;7.43;;
10041;SDS011;5061;49.068;12.058;2024-01-10T03:11:57;16.90;;;7.83;;
10041;SDS011;5061;49.068;12.058;2024-01-10T03:15:18;20.20;;;8.37;;
10041;SDS011;5061;49.068;12.058;2024-01-10T03:18:38;17.23;;;7.90;;
10041;SDS011;5061;49.068;12.058;2024-01-10T03:21:59;22.60;;;8.57;;
10041;SDS011;5061;49.068;12.058;2024-01-10T03:25:20;16.60;;;7.63;;
10041;SDS011;5061;49.068;12.058;2024-01-10T03:28:40;19.40;;;7.70;;
10041;SDS011;5061;49.068;12.058;2024-01-10T03:32:01;17.57;;;7.67;;
10041;SDS011;5061;49.068;12.058;2024-01-10T03:35:21;16.63;;;6.77;;
10041;SDS011;5061;49.068;12.058;2024-01-10T03:38:42;20.87;;;7.50;;
10041;SDS011;5061;49.068;12.058;2024-01-10T03:42:03;18.67;;;7.33;;
10041;SDS011;5061;49.068;12.058;2024-01-10T03:45:24;18.67;;;7.80;;
10041;SDS011;5061;49.068;12.058;2024-01-10T03:48:45;17.37;;;7.40;;
10041;SDS011;5061;49.068;12.058;2024-01-10T03:52:08;13.40;;;6.40;;
10041;SDS011;5061;49.068;12.058;2024-01-10T03:55:29;17.53;;;7.50;;
10041;SDS011;5061;49.068;12.058;2024-01-10T03:58:50;21.40;;;8.40;;
10041;SDS011;5061;49.068;12.058;2024-01-10T04:02:10;16.67;;;7.90;;
10041;SDS011;5061;49.068;12.058;2024-01-10T04:05:31;19.00;;;8.77;;
10041;SDS011;5061;49.068;12.058;2024-01-10T04:08:52;23.33;;;9.37;;
10041;SDS011;5061;49.068;12.058;2024-01-10T04:12:12;21.43;;;8.97;;
10041;SDS011;5061;49.068;12.058;2024-01-10T04:15:33;19.80;;;9.00;;
10041;SDS011;5061;49.068;12.058;2024-01-10T04:18:54;22.40;;;9.27;;
10041;SDS011;5061;49.068;12.058;2024-01-10T04:22:15;17.10;;;8.73;;
10041;SDS011;5061;49.068;12.058;2024-01-10T04:25:36;19.87;;;8.50;;
10041;SDS011;5061;49.068;12.058;2024-01-10T04:28:57;20.30;;;9.70;;
10041;SDS011;5061;49.068;12.058;2024-01-10T04:32:17;22.40;;;10.13;;
10041;SDS011;5061;49.068;12.058;2024-01-10T04:35:38;17.23;;;7.70;;
10041;SDS011;5061;49.068;12.058;2024-01-10T04:38:58;19.13;;;8.43;;
10041;SDS011;5061;49.068;12.058;2024-01-10T04:42:19;25.03;;;8.77;;
10041;SDS011;5061;49.068;12.058;2024-01-10T04:45:40;22.83;;;10.70;;
10041;SDS011;5061;49.068;12.058;2024-01-10T04:49:00;24.60;;;10.27;;
10041;SDS011;5061;49.068;12.058;2024-01-10T04:52:21;18.63;;;8.27;;
10041;SDS011;5061;49.068;12.058;2024-01-10T04:55:41;20.10;;;10.10;;
10041;SDS011;5061;49.068;12.058;2024-01-10T04:59:02;26.97;;;8.87;;
10041;SDS011;5061;49.068;12.058;2024-01-10T05:02:23;15.53;;;7.80;;
10041;SDS011;5061;49.068;12.058;2024-01-10T05:05:44;22.40;;;9.63;;
10041;SDS011;5061;49.068;12.058;2024-01-10T05:09:04;17.57;;;8.50;;
10041;SDS011;5061;49.068;12.058;2024-01-10T05:12:26;20.10;;;8.80;;
10041;SDS011;5061;49.068;12.058;2024-01-10T05:15:47;24.87;;;9.40;;
10041;SDS011;5061;49.068;12.058;2024-01-10T05:19:08;20.33;;;8.33;;
10041;SDS011;5061;49.068;12.058;2024-01-10T05:22:29;22.17;;;8.93;;
10041;SDS011;5061;49.068;12.058;2024-01-10T05:25:50;20.60;;;8.73;;
10041;SDS011;5061;49.068;12.058;2024-01-10T05:29:10;17.10;;;8.13;;
10041;SDS011;5061;49.068;12.058;2024-01-10T05:32:31;22.30;;;9.33;;
10041;SDS011;5061;49.068;12.058;2024-01-10T05:35:51;20.07;;;8.97;;
10041;SDS011;5061;49.068;12.058;2024-01-10T05:39:12;22.37;;;9.00;;
10041;SDS011;5061;49.068;12.058;2024-01-10T05:42:35;22.70;;;9.50;;
10041;SDS011;5061;49.068;12.058;2024-01-10T05:45:58;23.30;;;8.87;;
10041;SDS011;5061;49.068;12.058;2024-01-10T05:49:19;21.90;;;8.40;;
10041;SDS011;5061;49.068;12.058;2024-01-10T05:52:40;19.87;;;7.30;;
10041;SDS011;5061;49.068;12.058;2024-01-10T05:56:01;19.90;;;8.90;;
10041;SDS011;5061;49.068;12.058;2024-01-10T05:59:21;16.67;;;8.00;;
10041;SDS011;5061;49.068;12.058;2024-01-10T06:02:42;22.50;;;9.20;;
10041;SDS011;5061;49.068;12.058;2024-01-10T06:06:03;17.40;;;7.97;;
10041;SDS011;5061;49.068;12.058;2024-01-10T06:09:24;19.00;;;8.40;;
10041;SDS011;5061;49.068;12.058;2024-01-10T06:12:45;24.03;;;8.73;;
10041;SDS011;5061;49.068;12.058;2024-01-10T06:16:06;23.47;;;9.07;;
10041;SDS011;5061;49.068;12.058;2024-01-10T06:19:27;21.70;;;8.47;;
10041;SDS011;5061;49.068;12.058;2024-01-10T06:22:48;21.60;;;9.53;;
10041;SDS011;5061;49.068;12.058;2024-01-10T06:26:09;18.40;;;8.20;;
10041;SDS011;5061;49.068;12.058;2024-01-10T06:29:31;15.10;;;7.07;;
10041;SDS011;5061;49.068;12.058;2024-01-10T06:32:59;16.27;;;7.83;;
10041;SDS011;5061;49.068;12.058;2024-01-10T06:36:20;18.07;;;8.30;;
10041;SDS011;5061;49.068;12.058;2024-01-10T06:39:41;14.77;;;6.43;;
10041;SDS011;5061;49.068;12.058;2024-01-10T06:43:01;17.33;;;7.43;;
10041;SDS011;5061;49.068;12.058;2024-01-10T06:46:25;16.67;;;7.63;;
10041;SDS011;5061;49.068;12.058;2024-01-10T06:49:45;20.57;;;8.00;;
10041;SDS011;5061;49.068;12.058;2024-01-10T06:53:06;14.73;;;7.27;;
10041;SDS011;5061;49.068;12.058;2024-01-10T06:56:28;15.73;;;6.87;;
10041;SDS011;5061;49.068;12.058;2024-01-10T06:59:48;18.77;;;8.50;;
10041;SDS011;5061;49.068;12.058;2024-01-10T07:03:09;19.70;;;8.30;;
10041;SDS011;5061;49.068;12.058;2024-01-10T07:06:30;14.40;;;6.70;;
10041;SDS011;5061;49.068;12.058;2024-01-10T07:09:50;11.70;;;6.20;;
10041;SDS011;5061;49.068;12.058;2024-01-10T07:13:11;16.50;;;7.20;;
10041;SDS011;5061;49.068;12.058;2024-01-10T07:16:31;16.03;;;7.30;;
10041;SDS011;5061;49.068;12.058;2024-01-10T07:19:52;16.83;;;7.47;;
10041;SDS011;5061;49.068;12.058;2024-01-10T07:23:13;14.40;;;6.80;;
10041;SDS011;5061;49.068;12.058;2024-01-10T07:26:33;13.23;;;6.27;;
10041;SDS011;5061;49.068;12.058;2024-01-10T07:29:54;14.57;;;6.47;;
10041;SDS011;5061;49.068;12.058;2024-01-10T07:33:14;18.73;;;7.67;;
10041;SDS011;5061;49.068;12.058;2024-01-10T07:36:41;17.33;;;7.23;;
10041;SDS011;5061;49.068;12.058;2024-01-10T07:40:03;14.77;;;8.40;;
10041;SDS011;5061;49.068;12.058;2024-01-10T07:43:28;17.97;;;7.77;;
10041;SDS011;5061;49.068;12.058;2024-01-10T07:46:49;17.70;;;6.40;;
10041;SDS011;5061;49.068;12.058;2024-01-10T07:50:13;15.67;;;6.77;;
10041;SDS011;5061;49.068;12.058;2024-01-10T07:53:34;18.87;;;7.37;;
10041;SDS011;5061;49.068;12.058;2024-01-10T07:56:56;16.73;;;7.70;;
10041;SDS011;5061;49.068;12.058;2024-01-10T08:00:16;25.10;;;9.50;;
10041;SDS011;5061;49.068;12.058;2024-01-10T08:03:40;23.87;;;9.70;;
10041;SDS011;5061;49.068;12.058;2024-01-10T08:07:01;21.23;;;9.10;;
10041;SDS011;5061;49.068;12.058;2024-01-10T08:10:21;21.23;;;9.10;;
10041;SDS011;5061;49.068;12.058;2024-01-10T08:13:42;23.80;;;9.93;;
10041;SDS011;5061;49.068;12.058;2024-01-10T08:17:03;23.30;;;9.90;;
10041;SDS011;5061;49.068;12.058;2024-01-10T08:20:24;20.47;;;9.10;;
10041;SDS011;5061;49.068;12.058;2024-01-10T08:23:44;20.33;;;9.30;;
10041;SDS011;5061;49.068;12.058;2024-01-10T08:27:05;21.20;;;8.83;;
10041;SDS011;5061;49.068;12.058;2024-01-10T08:30:25;18.07;;;7.90;;
10041;SDS011;5061;49.068;12.058;2024-01-10T08:33:46;22.53;;;8.27;;
10041;SDS011;5061;49.068;12.058;2024-01-10T08:37:06;14.50;;;7.20;;
10041;SDS011;5061;49.068;12.058;2024-01-10T08:40:27;13.50;;;6.80;;
10041;SDS011;5061;49.068;12.058;2024-01-10T08:43:48;14.93;;;7.10;;
10041;SDS011;5061;49.068;12.058;2024-01-10T08:47:09;17.93;;;8.03;;
10041;SDS011;5061;49.068;12.058;2024-01-10T08:50:29;16.47;;;6.63;;
10041;SDS011;5061;49.068;12.058;2024-01-10T08:53:50;14.80;;;7.60;;
10041;SDS011;5061;49.068;12.058;2024-01-10T08:57:11;18.43;;;7.07;;
10041;SDS011;5061;49.068;12.058;2024-01-10T09:00:32;22.77;;;8.33;;
10041;SDS011;5061;49.068;12.058;2024-01-10T09:03:52;15.80;;;6.23;;
10041;SDS011;5061;49.068;12.058;2024-01-10T09:07:13;16.43;;;6.30;;
10041;SDS011;5061;49.068;12.058;2024-01-10T09:10:33;18.40;;;7.47;;
10041;SDS011;5061;49.068;12.058;2024-01-10T09:13:54;11.97;;;5.87;;
10041;SDS011;5061;49.068;12.058;2024-01-10T09:17:15;31.07;;;8.73;;
10041;SDS011;5061;49.068;12.058;2024-01-10T09:20:35;10.73;;;5.40;;
10041;SDS011;5061;49.068;12.058;2024-01-10T09:23:56;17.93;;;7.87;;
10041;SDS011;5061;49.068;12.058;2024-01-10T09:27:16;10.47;;;6.00;;
10041;SDS011;5061;49.068;12.058;2024-01-10T09:30:37;16.13;;;6.80;;
10041;SDS011;5061;49.068;12.058;2024-01-10T09:33:58;15.47;;;7.60;;
10041;SDS011;5061;49.068;12.058;2024-01-10T09:37:18;16.27;;;7.90;;
10041;SDS011;5061;49.068;12.058;2024-01-10T09:40:39;15.97;;;6.90;;
10041;SDS011;5061;49.068;12.058;2024-01-10T09:44:00;23.23;;;9.17;;
10041;SDS011;5061;49.068;12.058;2024-01-10T09:47:21;14.70;;;7.80;;
10041;SDS011;5061;49.068;12.058;2024-01-10T09:50:42;15.13;;;7.70;;
10041;SDS011;5061;49.068;12.058;2024-01-10T09:54:03;17.13;;;7.60;;
10041;SDS011;5061;49.068;12.058;2024-01-10T09:57:26;18.27;;;8.70;;
10041;SDS011;5061;49.068;12.058;2024-01-10T10:00:47;13.93;;;7.00;;
10041;SDS011;5061;49.068;12.058;2024-01-10T10:04:09;15.47;;;7.40;;
10041;SDS011;5061;49.068;12.058;2024-01-10T10:07:42;17.30;;;8.17;;
10041;SDS011;5061;49.068;12.058;2024-01-10T10:11:12;21.67;;;8.93;;
10041;SDS011;5061;49.068;12.058;2024-01-10T10:14:36;14.57;;;8.20;;
10041;SDS011;5061;49.068;12.058;2024-01-10T10:17:56;17.73;;;8.10;;
10041;SDS011;5061;49.068;12.058;2024-01-10T10:21:17;20.53;;;7.50;;
10041;SDS011;5061;49.068;12.058;2024-01-10T10:24:38;19.53;;;8.07;;
10041;SDS011;5061;49.068;12.058;2024-01-10T10:28:01;19.13;;;8.83;;
10041;SDS011;5061;49.068;12.058;2024-01-10T10:31:23;25.67;;;8.53;;
10041;SDS011;5061;49.068;12.058;2024-01-10T10:34:44;17.67;;;8.17;;
10041;SDS011;5061;49.068;12.058;2024-01-10T10:38:07;19.20;;;9.47;;
10041;SDS011;5061;49.068;12.058;2024-01-10T10:41:31;20.07;;;8.83;;
10041;SDS011;5061;49.068;12.058;2024-01-10T10:44:52;14.80;;;7.17;;
10041;SDS011;5061;49.068;12.058;2024-01-10T10:48:18;18.07;;;9.23;;
10041;SDS011;5061;49.068;12.058;2024-01-10T10:51:42;21.67;;;9.60;;
10041;SDS011;5061;49.068;12.058;2024-01-10T10:55:03;20.27;;;8.73;;
10041;SDS011;5061;49.068;12.058;2024-01-10T10:58:25;16.90;;;6.93;;
10041;SDS011;5061;49.068;12.058;2024-01-10T11:01:46;15.33;;;7.00;;
10041;SDS011;5061;49.068;12.058;2024-01-10T11:05:08;24.10;;;8.93;;
10041;SDS011;5061;49.068;12.058;2024-01-10T11:08:36;17.50;;;7.63;;
10041;SDS011;5061;49.068;12.058;2024-01-10T11:23:31;15.53;;;8.50;;
10041;SDS011;5061;49.068;12.058;2024-01-10T11:27:12;24.87;;;8.97;;
10041;SDS011;5061;49.068;12.058;2024-01-10T11:30:37;26.70;;;9.60;;
10041;SDS011;5061;49.068;12.058;2024-01-10T11:34:08;18.40;;;8.47;;
10041;SDS011;5061;49.068;12.058;2024-01-10T11:37:39;16.23;;;7.60;;
10041;SDS011;5061;49.068;12.058;2024-01-10T11:44:55;14.80;;;8.07;;
10041;SDS011;5061;49.068;12.058;2024-01-10T11:48:16;17.13;;;7.47;;
10041;SDS011;5061;49.068;12.058;2024-01-10T11:51:46;19.10;;;8.13;;
10041;SDS011;5061;49.068;12.058;2024-01-10T11:55:10;22.97;;;9.70;;
10041;SDS011;5061;49.068;12.058;2024-01-10T11:59:06;21.87;;;10.20;;
10041;SDS011;5061;49.068;12.058;2024-01-10T12:02:31;20.00;;;9.63;;
10041;SDS011;5061;49.068;12.058;2024-01-10T12:05:52;19.60;;;9.00;;
10041;SDS011;5061;49.068;12.058;2024-01-10T12:09:15;25.70;;;11.30;;
10041;SDS011;5061;49.068;12.058;2024-01-10T12:12:36;27.43;;;10.67;;
10041;SDS011;5061;49.068;12.058;2024-01-10T12:15:56;15.60;;;8.37;;
10041;SDS011;5061;49.068;12.058;2024-01-10T12:19:18;25.80;;;10.27;;
10041;SDS011;5061;49.068;12.058;2024-01-10T12:22:38;24.77;;;8.80;;
10041;SDS011;5061;49.068;12.058;2024-01-10T12:26:01;21.33;;;9.37;;
10041;SDS011;5061;49.068;12.058;2024-01-10T12:29:22;29.03;;;12.10;;
10041;SDS011;5061;49.068;12.058;2024-01-10T12:32:45;27.40;;;10.07;;
10041;SDS011;5061;49.068;12.058;2024-01-10T12:36:10;23.33;;;10.30;;
10041;SDS011;5061;49.068;12.058;2024-01-10T12:39:31;18.53;;;9.10;;
10041;SDS011;5061;49.068;12.058;2024-01-10T12:43:04;21.63;;;8.97;;
10041;SDS011;5061;49.068;12.058;2024-01-10T12:46:26;19.43;;;7.70;;
10041;SDS011;5061;49.068;12.058;2024-01-10T12:49:46;17.00;;;7.97;;
10041;SDS011;5061;49.068;12.058;2024-01-10T12:53:07;18.53;;;8.20;;
10041;SDS011;5061;49.068;12.058;2024-01-10T12:56:31;15.20;;;7.20;;
10041;SDS011;5061;49.068;12.058;2024-01-10T12:59:51;16.50;;;7.60;;
10041;SDS011;5061;49.068;12.058;2024-01-10T13:03:12;13.47;;;6.70;;
10041;SDS011;5061;49.068;12.058;2024-01-10T13:06:33;13.00;;;6.60;;
10041;SDS011;5061;49.068;12.058;2024-01-10T13:09:54;14.77;;;6.00;;
10041;SDS011;5061;49.068;12.058;2024-01-10T13:13:16;19.20;;;8.30;;
10041;SDS011;5061;49.068;12.058;2024-01-10T13:16:38;15.80;;;8.03;;
10041;SDS011;5061;49.068;12.058;2024-01-10T13:19:59;17.10;;;8.80;;
10041;SDS011;5061;49.068;12.058;2024-01-10T13:23:20;16.67;;;8.20;;
10041;SDS011;5061;49.068;12.058;2024-01-10T13:26:44;13.40;;;7.00;;
10041;SDS011;5061;49.068;12.058;2024-01-10T13:30:05;13.57;;;6.30;;
10041;SDS011;5061;49.068;12.058;2024-01-10T13:33:26;17.87;;;8.23;;
10041;SDS011;5061;49.068;12.058;2024-01-10T13:36:47;13.17;;;7.00;;
10041;SDS011;5061;49.068;12.058;2024-01-10T13:40:08;15.90;;;7.70;;
10041;SDS011;5061;49.068;12.058;2024-01-10T13:43:29;21.27;;;9.53;;
10041;SDS011;5061;49.068;12.058;2024-01-10T13:46:50;20.87;;;9.57;;
10041;SDS011;5061;49.068;12.058;2024-01-10T13:50:11;19.20;;;8.17;;
10041;SDS011;5061;49.068;12.058;2024-01-10T13:53:31;16.57;;;8.27;;
10041;SDS011;5061;49.068;12.058;2024-01-10T13:56:52;17.90;;;7.70;;
10041;SDS011;5061;49.068;12.058;2024-01-10T14:00:13;18.03;;;8.60;;
10041;SDS011;5061;49.068;12.058;2024-01-10T14:03:34;18.60;;;8.00;;
10041;SDS011;5061;49.068;12.058;2024-01-10T14:06:56;20.07;;;8.03;;
10041;SDS011;5061;49.068;12.058;2024-01-10T14:10:16;21.03;;;8.63;;
10041;SDS011;5061;49.068;12.058;2024-01-10T14:13:38;19.97;;;9.20;;
10041;SDS011;5061;49.068;12.058;2024-01-10T14:16:59;18.50;;;7.50;;
10041;SDS011;5061;49.068;12.058;2024-01-10T14:20:20;17.40;;;8.63;;
10041;SDS011;5061;49.068;12.058;2024-01-10T14:23:41;16.77;;;9.17;;
10041;SDS011;5061;49.068;12.058;2024-01-10T14:27:01;22.70;;;10.23;;
10041;SDS011;5061;49.068;12.058;2024-01-10T14:30:22;20.00;;;9.50;;
10041;SDS011;5061;49.068;12.058;2024-01-10T14:33:45;22.63;;;9.47;;
10041;SDS011;5061;49.068;12.058;2024-01-10T14:37:05;24.97;;;11.50;;
10041;SDS011;5061;49.068;12.058;2024-01-10T14:40:27;26.50;;;10.07;;
10041;SDS011;5061;49.068;12.058;2024-01-10T14:43:47;22.40;;;11.13;;
10041;SDS011;5061;49.068;12.058;2024-01-10T14:47:08;26.27;;;9.93;;
10041;SDS011;5061;49.068;12.058;2024-01-10T14:50:29;24.23;;;11.30;;
10041;SDS011;5061;49.068;12.058;2024-01-10T14:53:50;24.97;;;10.73;;
10041;SDS011;5061;49.068;12.058;2024-01-10T14:57:11;24.20;;;10.03;;
10041;SDS011;5061;49.068;12.058;2024-01-10T15:00:31;22.47;;;9.60;;
10041;SDS011;5061;49.068;12.058;2024-01-10T15:03:52;28.77;;;11.40;;
10041;SDS011;5061;49.068;12.058;2024-01-10T15:07:13;22.10;;;10.60;;
10041;SDS011;5061;49.068;12.058;2024-01-10T15:10:37;21.10;;;9.07;;
10041;SDS011;5061;49.068;12.058;2024-01-10T15:14:04;25.87;;;10.60;;
10041;SDS011;5061;49.068;12.058;2024-01-10T15:17:25;22.80;;;10.23;;
10041;SDS011;5061;49.068;12.058;2024-01-10T15:20:48;29.00;;;11.10;;
10041;SDS011;5061;49.068;12.058;2024-01-10T15:24:09;25.93;;;10.53;;
10041;SDS011;5061;49.068;12.058;2024-01-10T15:27:29;21.43;;;10.80;;
10041;SDS011;5061;49.068;12.058;2024-01-10T15:30:50;25.87;;;10.97;;
10041;SDS011;5061;49.068;12.058;2024-01-10T15:34:11;20.57;;;9.50;;
10041;SDS011;5061;49.068;12.058;2024-01-10T15:37:31;21.30;;;9.17;;
10041;SDS011;5061;49.068;12.058;2024-01-10T15:40:52;21.60;;;9.27;;
10041;SDS011;5061;49.068;12.058;2024-01-10T15:44:13;27.27;;;10.33;;
10041;SDS011;5061;49.068;12.058;2024-01-10T15:47:34;20.93;;;8.70;;
10041;SDS011;5061;49.068;12.058;2024-01-10T15:50:57;20.13;;;9.53;;
10041;SDS011;5061;49.068;12.058;2024-01-10T15:54:18;26.47;;;11.47;;
10041;SDS011;5061;49.068;12.058;2024-01-10T15:57:39;21.87;;;10.63;;
10041;SDS011;5061;49.068;12.058;2024-01-10T16:00:59;27.20;;;12.00;;
10041;SDS011;5061;49.068;12.058;2024-01-10T16:04:20;27.10;;;10.73;;
10041;SDS011;5061;49.068;12.058;2024-01-10T16:07:40;27.40;;;12.80;;
10041;SDS011;5061;49.068;12.058;2024-01-10T16:11:01;24.77;;;12.63;;
10041;SDS011;5061;49.068;12.058;2024-01-10T16:14:22;22.63;;;9.87;;
10041;SDS011;5061;49.068;12.058;2024-01-10T16:17:42;26.73;;;11.73;;
10041;SDS011;5061;49.068;12.058;2024-01-10T16:21:06;23.07;;;10.87;;
10041;SDS011;5061;49.068;12.058;2024-01-10T16:24:26;24.67;;;10.77;;
10041;SDS011;5061;49.068;12.058;2024-01-10T16:27:47;22.40;;;9.83;;
10041;SDS011;5061;49.068;12.058;2024-01-10T16:31:08;17.60;;;9.27;;
10041;SDS011;5061;49.068;12.058;2024-01-10T16:34:28;26.40;;;10.50;;
10041;SDS011;5061;49.068;12.058;2024-01-10T16:37:49;22.47;;;8.93;;
10041;SDS011;5061;49.068;12.058;2024-01-10T16:41:10;26.03;;;9.73;;
10041;SDS011;5061;49.068;12.058;2024-01-10T16:44:30;19.17;;;9.77;;
10041;SDS011;5061;49.068;12.058;2024-01-10T16:47:51;19.83;;;8.67;;
10041;SDS011;5061;49.068;12.058;2024-01-10T16:51:11;19.80;;;9.40;;
10041;SDS011;5061;49.068;12.058;2024-01-10T16:54:33;23.30;;;10.63;;
10041;SDS011;5061;49.068;12.058;2024-01-10T16:57:54;27.47;;;10.93;;
10041;SDS011;5061;49.068;12.058;2024-01-10T17:01:15;23.77;;;11.20;;
10041;SDS011;5061;49.068;12.058;2024-01-10T17:04:35;21.90;;;9.47;;
10041;SDS011;5061;49.068;12.058;2024-01-10T17:07:56;19.27;;;8.67;;
10041;SDS011;5061;49.068;12.058;2024-01-10T17:11:16;19.23;;;10.47;;
10041;SDS011;5061;49.068;12.058;2024-01-10T17:14:37;24.60;;;11.73;;
10041;SDS011;5061;49.068;12.058;2024-01-10T17:17:58;24.27;;;11.17;;
10041;SDS011;5061;49.068;12.058;2024-01-10T17:21:19;20.63;;;8.93;;
10041;SDS011;5061;49.068;12.058;2024-01-10T17:24:40;19.73;;;9.90;;
10041;SDS011;5061;49.068;12.058;2024-01-10T17:28:01;21.43;;;9.13;;
10041;SDS011;5061;49.068;12.058;2024-01-10T17:31:23;20.93;;;8.97;;
10041;SDS011;5061;49.068;12.058;2024-01-10T17:34:43;21.20;;;8.73;;
10041;SDS011;5061;49.068;12.058;2024-01-10T17:38:04;19.10;;;9.30;;
10041;SDS011;5061;49.068;12.058;2024-01-10T17:41:27;22.97;;;9.00;;
10041;SDS011;5061;49.068;12.058;2024-01-10T17:44:49;23.27;;;10.17;;
10041;SDS011;5061;49.068;12.058;2024-01-10T17:48:09;23.37;;;11.07;;
10041;SDS011;5061;49.068;12.058;2024-01-10T17:51:30;24.77;;;10.63;;
10041;SDS011;5061;49.068;12.058;2024-01-10T17:54:52;28.00;;;11.87;;
10041;SDS011;5061;49.068;12.058;2024-01-10T17:58:13;25.03;;;11.40;;
10041;SDS011;5061;49.068;12.058;2024-01-10T18:01:34;25.03;;;11.70;;
10041;SDS011;5061;49.068;12.058;2024-01-10T18:04:54;27.63;;;11.53;;
10041;SDS011;5061;49.068;12.058;2024-01-10T18:08:15;28.70;;;12.67;;
10041;SDS011;5061;49.068;12.058;2024-01-10T18:11:36;28.07;;;12.90;;
10041;SDS011;5061;49.068;12.058;2024-01-10T18:14:57;30.13;;;13.90;;
10041;SDS011;5061;49.068;12.058;2024-01-10T18:18:17;34.30;;;15.37;;
10041;SDS011;5061;49.068;12.058;2024-01-10T18:21:38;31.13;;;14.57;;
10041;SDS011;5061;49.068;12.058;2024-01-10T18:24:59;42.93;;;15.07;;
10041;SDS011;5061;49.068;12.058;2024-01-10T18:28:19;38.13;;;17.70;;
10041;SDS011;5061;49.068;12.058;2024-01-10T18:31:40;35.07;;;15.47;;
10041;SDS011;5061;49.068;12.058;2024-01-10T18:35:00;36.77;;;15.80;;
10041;SDS011;5061;49.068;12.058;2024-01-10T18:38:21;29.77;;;13.37;;
10041;SDS011;5061;49.068;12.058;2024-01-10T18:41:42;27.80;;;11.80;;
10041;SDS011;5061;49.068;12.058;2024-01-10T18:45:03;29.10;;;12.50;;
10041;SDS011;5061;49.068;12.058;2024-01-10T18:48:23;30.03;;;13.00;;
10041;SDS011;5061;49.068;12.058;2024-01-10T18:51:44;29.80;;;13.40;;
10041;SDS011;5061;49.068;12.058;2024-01-10T18:55:05;24.73;;;12.30;;
10041;SDS011;5061;49.068;12.058;2024-01-10T18:58:26;26.23;;;12.30;;
10041;SDS011;5061;49.068;12.058;2024-01-10T19:01:47;24.33;;;10.17;;
10041;SDS011;5061;49.068;12.058;2024-01-10T19:05:07;27.83;;;12.67;;
10041;SDS011;5061;49.068;12.058;2024-01-10T19:08:28;21.90;;;11.43;;
10041;SDS011;5061;49.068;12.058;2024-01-10T19:11:50;23.80;;;11.03;;
10041;SDS011;5061;49.068;12.058;2024-01-10T19:15:10;29.07;;;13.43;;
10041;SDS011;5061;49.068;12.058;2024-01-10T19:18:34;25.70;;;12.43;;
10041;SDS011;5061;49.068;12.058;2024-01-10T19:21:55;26.43;;;12.20;;
10041;SDS011;5061;49.068;12.058;2024-01-10T19:25:20;25.27;;;10.90;;
10041;SDS011;5061;49.068;12.058;2024-01-10T19:28:41;26.10;;;11.90;;
10041;SDS011;5061;49.068;12.058;2024-01-10T19:32:01;30.67;;;13.00;;
10041;SDS011;5061;49.068;12.058;2024-01-10T19:35:22;30.67;;;13.00;;
10041;SDS011;5061;49.068;12.058;2024-01-10T19:38:43;33.63;;;15.40;;
10041;SDS011;5061;49.068;12.058;2024-01-10T19:42:04;22.43;;;12.10;;
10041;SDS011;5061;49.068;12.058;2024-01-10T19:45:26;27.20;;;11.80;;
10041;SDS011;5061;49.068;12.058;2024-01-10T19:48:47;21.93;;;10.43;;
10041;SDS011;5061;49.068;12.058;2024-01-10T19:52:07;33.90;;;14.37;;
10041;SDS011;5061;49.068;12.058;2024-01-10T19:55:30;31.53;;;14.13;;
10041;SDS011;5061;49.068;12.058;2024-01-10T19:58:50;28.90;;;12.30;;
10041;SDS011;5061;49.068;12.058;2024-01-10T20:02:11;26.87;;;12.57;;
10041;SDS011;5061;49.068;12.058;2024-01-10T20:05:32;24.83;;;11.83;;